Lyons, Michigan
Current Conditions -  °F | °C
As of 7:33 AM on Sunday 23 Nov 2014 (Local Time) from KY70 Reporting Station
Overcast Overcast  
Wind Chill: 43°   Ceiling: 3100
Heat Index: 48°   Visibility: 10mi
Dew Point: 46°   Wind: 14mph
Humidity: 90%   Direction: 190°S
Pressure: 29.82"   Gusts: 18mph
Location:  42.98°N, 84.95°W
Report Text: KY70 231233Z AUTO 19012G16KT 10SM OVC031 09/08 A2982 RMK AO2 T00900075
Loading
Personal Weather Stations






























Interactive Weather Map New forecast layout! Learn more

10-Day Weather Forecast

Advertisements
Track Severe Weather on mobile